createdAt,value
2019-03-05T00:01:41.105Z,97770.88
2019-03-05T00:04:11.124Z,97768.89
2019-03-05T00:06:40.882Z,97775.04
2019-03-05T00:09:18.140Z,97789.06
2019-03-05T00:11:47.718Z,97790.17
2019-03-05T00:14:18.823Z,97791.70
2019-03-05T00:16:48.788Z,97792.52
2019-03-05T00:19:18.526Z,97792.52
2019-03-05T00:21:48.163Z,97802.00
2019-03-05T00:24:53.584Z,97802.00
2019-03-05T00:27:23.209Z,97812.48
2019-03-05T00:30:42.906Z,97812.72
2019-03-05T00:33:22.534Z,97825.12
2019-03-05T00:36:06.264Z,97832.92
2019-03-05T00:39:13.195Z,97843.48
2019-03-05T00:42:29.896Z,97847.15
2019-03-05T00:45:44.841Z,97850.63
2019-03-05T00:48:55.005Z,97856.67
2019-03-05T00:52:17.162Z,97863.33
2019-03-05T00:55:21.978Z,97865.75
2019-03-05T00:58:16.526Z,97881.50
2019-03-05T01:01:23.308Z,97884.32
2019-03-05T01:04:19.215Z,97887.84
2019-03-05T01:06:49.243Z,97883.58
2019-03-05T01:09:22.768Z,97888.03
2019-03-05T01:11:53.603Z,97890.58
2019-03-05T01:14:25.556Z,97892.20
2019-03-05T01:16:56.105Z,97901.80
2019-03-05T01:19:25.674Z,97902.97
2019-03-05T01:21:55.401Z,97913.06
2019-03-05T01:24:25.227Z,97923.42
2019-03-05T01:26:55.457Z,97930.28
2019-03-05T01:29:25.340Z,97934.66
2019-03-05T01:32:12.812Z,97942.37
2019-03-05T01:35:04.172Z,97949.30
2019-03-05T01:37:35.118Z,97952.78
2019-03-05T01:40:25.704Z,97956.41
2019-03-05T01:42:55.474Z,97959.98
2019-03-05T01:45:25.589Z,97959.42
2019-03-05T01:47:58.690Z,97972.15
2019-03-05T01:50:28.208Z,97980.91
2019-03-05T01:52:57.786Z,97987.36
2019-03-05T01:55:27.657Z,97989.80
2019-03-05T01:57:57.544Z,97991.59
2019-03-05T02:00:27.845Z,98001.93
2019-03-05T02:02:57.452Z,98010.13
2019-03-05T02:05:27.051Z,98010.13
2019-03-05T02:07:57.522Z,98012.23
2019-03-05T02:10:27.757Z,98020.95
2019-03-05T02:12:57.425Z,98025.23
2019-03-05T02:15:27.134Z,98030.81
2019-03-05T02:17:56.872Z,98039.09
2019-03-05T02:20:26.823Z,98043.81
2019-03-05T02:23:25.374Z,98045.11
2019-03-05T02:26:17.112Z,98056.00
2019-03-05T02:29:40.101Z,98062.55
2019-03-05T02:32:40.959Z,98064.62
2019-03-05T02:35:22.637Z,98070.68
2019-03-05T02:38:08.406Z,98075.35
2019-03-05T02:41:10.245Z,98085.31
2019-03-05T02:44:16.560Z,98091.98
2019-03-05T02:47:14.361Z,98092.02
2019-03-05T02:50:25.030Z,98107.09
2019-03-05T02:53:38.609Z,98112.73
2019-03-05T02:56:54.619Z,98121.41
2019-03-05T02:59:24.628Z,98124.09
2019-03-05T03:02:16.342Z,98130.22
2019-03-05T03:04:48.691Z,98138.02
2019-03-05T03:07:18.336Z,98140.32
2019-03-05T03:10:12.900Z,98148.41
2019-03-05T03:12:43.439Z,98152.84
2019-03-05T03:15:15.136Z,98156.05
2019-03-05T03:17:44.986Z,98166.84
2019-03-05T03:20:16.956Z,98168.58
2019-03-05T03:22:46.736Z,98173.48
2019-03-05T03:25:18.313Z,98025.75
2019-03-05T03:27:48.064Z,98179.12
2019-03-05T03:30:19.774Z,98188.17
2019-03-05T03:32:49.607Z,98196.27
2019-03-05T03:35:19.844Z,98203.20
2019-03-05T03:37:50.363Z,98219.70
2019-03-05T03:40:21.642Z,98215.41
2019-03-05T03:42:51.924Z,98218.89
2019-03-05T03:45:26.337Z,98226.25
2019-03-05T03:47:56.375Z,98235.27
2019-03-05T03:50:26.069Z,98231.02
2019-03-05T03:52:55.697Z,98248.34
2019-03-05T04:02:21.199Z,98269.97
2019-03-05T04:04:50.881Z,98280.84
2019-03-05T04:07:20.516Z,98274.27
2019-03-05T04:09:50.445Z,98291.63
2019-03-05T04:12:25.809Z,98301.20
2019-03-05T04:22:03.883Z,98327.36
2019-03-05T04:24:33.425Z,98334.30
2019-03-05T04:27:03.148Z,98342.95
2019-03-05T04:29:33.097Z,98353.75
2019-03-05T04:32:03.214Z,98351.62
2019-03-05T04:45:01.842Z,98388.84
2019-03-05T04:47:31.443Z,98395.84
2019-03-05T04:50:18.797Z,98405.34
2019-03-05T04:52:48.467Z,98412.27
2019-03-05T04:55:18.068Z,98417.57
2019-03-05T04:57:48.014Z,98423.17
2019-03-05T05:00:18.103Z,98427.03
2019-03-05T05:02:47.647Z,98430.70
2019-03-05T05:05:17.618Z,98437.16
2019-03-05T05:07:47.494Z,98444.53
2019-03-05T05:10:17.083Z,98453.16
2019-03-05T05:12:46.810Z,98460.98
2019-03-05T05:15:30.398Z,98468.75
2019-03-05T05:18:00.311Z,98475.25
2019-03-05T05:20:30.354Z,98477.48
2019-03-05T05:22:59.957Z,98341.75
2019-03-05T05:25:29.637Z,98494.83
2019-03-05T05:27:59.228Z,98496.19
2019-03-05T05:30:34.372Z,98501.76
2019-03-05T05:33:04.535Z,98513.45
2019-03-05T05:35:34.515Z,98513.94
2019-03-05T05:38:04.762Z,98522.17
2019-03-05T05:40:36.223Z,98526.96
2019-03-05T05:43:07.068Z,98542.55
2019-03-05T05:45:45.356Z,98548.67
2019-03-05T05:48:15.625Z,98559.08
2019-03-05T05:50:45.335Z,98564.70
2019-03-05T05:53:15.343Z,98572.00
2019-03-05T05:55:45.227Z,98577.20
2019-03-05T05:58:15.173Z,98587.64
2019-03-05T06:00:47.321Z,98589.40
2019-03-05T06:03:16.965Z,98600.25
2019-03-05T06:05:46.782Z,98603.70
2019-03-05T06:08:16.634Z,98612.77
2019-03-05T06:10:46.307Z,98615.40
2019-03-05T06:13:15.874Z,98637.46
2019-03-05T06:15:45.635Z,98633.15
2019-03-05T06:18:15.182Z,98634.45
2019-03-05T06:20:44.995Z,98645.25
2019-03-05T06:23:14.747Z,98647.84
2019-03-05T06:25:44.347Z,98656.05
2019-03-05T06:28:14.022Z,98665.13
2019-03-05T06:30:43.847Z,98671.62
2019-03-05T06:33:13.542Z,98681.17
2019-03-05T06:35:43.255Z,98682.47
2019-03-05T06:38:12.959Z,98689.83
2019-03-05T06:40:42.789Z,98694.14
2019-03-05T06:43:12.474Z,98706.31
2019-03-05T06:45:42.309Z,98712.44
2019-03-05T06:48:11.959Z,98712.47
2019-03-05T06:50:41.969Z,98716.83
2019-03-05T06:53:11.841Z,98721.62
2019-03-05T06:55:41.524Z,98725.94
2019-03-05T06:58:11.992Z,98734.09
2019-03-05T07:00:41.885Z,98742.81
2019-03-05T07:03:11.645Z,98738.91
2019-03-05T07:06:16.481Z,98745.00
2019-03-05T07:08:54.064Z,98753.25
2019-03-05T07:11:42.618Z,98758.47
2019-03-05T07:14:20.046Z,98760.20
2019-03-05T07:17:04.832Z,98776.63
2019-03-05T07:19:45.466Z,98780.09
2019-03-05T07:22:43.874Z,98778.38
2019-03-05T07:25:13.554Z,98787.83
2019-03-05T07:27:53.444Z,98804.27
2019-03-05T07:30:24.536Z,98810.71
2019-03-05T07:32:54.891Z,98818.55
2019-03-05T07:35:26.800Z,98822.47
2019-03-05T07:37:56.610Z,98831.11
2019-03-05T07:40:26.266Z,98833.30
2019-03-05T07:42:55.724Z,98838.06
2019-03-05T07:45:25.694Z,98841.12
2019-03-05T07:47:55.249Z,98848.45
2019-03-05T07:50:25.009Z,98858.84
2019-03-05T07:52:54.855Z,98866.63
2019-03-05T07:55:24.539Z,98877.88
2019-03-05T07:57:54.158Z,98885.66
2019-03-05T08:00:24.197Z,98889.16
2019-03-05T08:02:53.918Z,98894.36
2019-03-05T08:05:23.597Z,98899.14
2019-03-05T08:07:53.595Z,98903.89
2019-03-05T08:10:31.400Z,98909.09
2019-03-05T08:13:23.822Z,98909.92
2019-03-05T08:16:14.880Z,98921.17
2019-03-05T08:18:44.601Z,98927.27
2019-03-05T08:21:14.188Z,98942.80
2019-03-05T08:23:43.739Z,98944.14
2019-03-05T08:26:14.137Z,98951.49
2019-03-05T08:28:43.624Z,98954.09
2019-03-05T08:31:13.242Z,98968.38
2019-03-05T08:34:47.445Z,98968.82
2019-03-05T08:38:09.804Z,98974.02
2019-03-05T08:40:47.063Z,98994.33
2019-03-05T08:43:16.923Z,99000.84
2019-03-05T09:10:53.735Z,99067.35
2019-03-05T09:13:32.217Z,99073.97
2019-03-05T09:15:55.280Z,99079.61
2019-03-05T09:18:25.013Z,99088.25
2019-03-05T09:20:54.912Z,99096.94
2019-03-05T09:23:24.876Z,99096.91
2019-03-05T09:25:54.460Z,99100.36
2019-03-05T09:28:24.283Z,99103.85
2019-03-05T09:30:54.264Z,99112.50
2019-03-05T09:33:23.933Z,99119.41
2019-03-05T09:35:53.523Z,99125.92
2019-03-05T09:38:23.546Z,99120.72
2019-03-05T09:40:53.488Z,99128.52
2019-03-05T09:43:23.375Z,99144.95
2019-03-05T09:45:53.285Z,99146.24
2019-03-05T09:48:23.092Z,99156.64
2019-03-05T09:50:52.914Z,99157.94
2019-03-05T09:53:22.976Z,99161.39
2019-03-05T09:55:52.493Z,99168.78
2019-03-05T09:58:22.301Z,99171.38
2019-03-05T10:00:52.100Z,99170.50
2019-03-05T10:03:22.285Z,99178.30
2019-03-05T10:05:51.900Z,99180.89
2019-03-05T10:08:32.081Z,99187.84
2019-03-05T10:10:53.330Z,99193.05
2019-03-05T10:13:23.621Z,99203.44
2019-03-05T10:15:53.659Z,99212.53
2019-03-05T10:18:23.590Z,99217.29
2019-03-05T10:20:53.635Z,99221.20
2019-03-05T10:23:23.390Z,99230.30
2019-03-05T10:25:53.372Z,99241.12
2019-03-05T10:28:23.181Z,99242.45
2019-03-05T10:30:53.013Z,99239.41
2019-03-05T10:33:23.064Z,99247.63
2019-03-05T10:35:53.022Z,99249.38
2019-03-05T10:38:22.868Z,99258.47
2019-03-05T10:40:53.672Z,99262.34
2019-03-05T10:43:23.588Z,99267.98
2019-03-05T10:45:53.220Z,99267.55
2019-03-05T10:48:23.628Z,99270.16
2019-03-05T10:50:53.889Z,99277.06
2019-03-05T10:53:23.946Z,99287.47
2019-03-05T10:55:53.926Z,99287.48
2019-03-05T10:58:33.210Z,99286.20
2019-03-05T11:00:55.414Z,99298.77
2019-03-05T11:03:27.213Z,99298.33
2019-03-05T11:05:56.914Z,99312.19
2019-03-05T11:08:28.770Z,99314.37
2019-03-05T11:11:00.476Z,99324.77
2019-03-05T11:13:30.566Z,99323.03
2019-03-05T11:16:00.421Z,99336.91
2019-03-05T11:18:30.395Z,99338.63
2019-03-05T11:21:00.316Z,99335.59
2019-03-05T11:23:30.331Z,99350.33
2019-03-05T11:26:00.299Z,99358.98
2019-03-05T11:28:30.286Z,99358.57
2019-03-05T11:30:59.981Z,99362.48
2019-03-05T11:33:30.052Z,99366.36
2019-03-05T11:36:00.238Z,99373.30
2019-03-05T11:38:30.230Z,99377.64
2019-03-05T11:41:00.511Z,99381.13
2019-03-05T11:43:30.381Z,99393.23
2019-03-05T11:46:00.360Z,99397.55
2019-03-05T11:48:30.391Z,99396.23
2019-03-05T11:51:00.484Z,99373.67
2019-03-05T11:53:30.381Z,99408.83
2019-03-05T11:56:00.424Z,99419.24
2019-03-05T11:58:30.213Z,99418.33
2019-03-05T12:01:07.089Z,99425.70
2019-03-05T12:03:37.449Z,99430.95
2019-03-05T12:06:07.227Z,99435.71
2019-03-05T12:08:37.214Z,99433.95
2019-03-05T12:11:06.989Z,99444.31
2019-03-05T12:13:36.800Z,99442.59
2019-03-05T12:16:12.908Z,99453.87
2019-03-05T12:18:42.828Z,99454.28
2019-03-05T12:21:12.463Z,99457.73
2019-03-05T12:23:46.952Z,99466.02
2019-03-05T12:26:14.005Z,99469.90
2019-03-05T12:28:44.190Z,99472.91
2019-03-05T12:31:13.927Z,99475.57
2019-03-05T12:33:43.912Z,99471.67
2019-03-05T12:36:14.185Z,99485.98
2019-03-05T12:38:46.141Z,99495.47
2019-03-05T12:41:15.689Z,99499.80
2019-03-05T12:43:45.687Z,99504.95
2019-03-05T12:46:15.962Z,99510.16
2019-03-05T12:48:46.000Z,99507.59
2019-03-05T12:51:15.884Z,99513.67
2019-03-05T12:53:45.818Z,99524.08
2019-03-05T12:56:23.360Z,99524.91
2019-03-05T12:58:47.737Z,99525.77
2019-03-05T13:01:17.556Z,99536.14
2019-03-05T13:03:47.575Z,99536.20
2019-03-05T13:06:17.546Z,99540.05
2019-03-05T13:08:47.265Z,99543.13
2019-03-05T13:11:17.179Z,99546.58
2019-03-05T13:13:47.600Z,99555.72
2019-03-05T13:16:20.906Z,99559.60
2019-03-05T13:18:51.075Z,99565.27
2019-03-05T13:21:20.828Z,99576.05
2019-03-05T13:23:51.608Z,99589.49
2019-03-05T13:26:21.669Z,99595.13
2019-03-05T13:28:52.527Z,99596.83
2019-03-05T13:31:23.467Z,99603.75
2019-03-05T13:33:53.620Z,99611.03
2019-03-05T13:36:23.738Z,99617.58
2019-03-05T13:38:53.822Z,99623.59
2019-03-05T13:41:23.761Z,99625.38
2019-03-05T13:43:55.480Z,99631.42
2019-03-05T13:46:28.643Z,99634.92
2019-03-05T13:49:39.966Z,99641.89
2019-03-05T13:52:37.519Z,99644.49
2019-03-05T13:55:23.512Z,99647.92
2019-03-05T13:58:36.064Z,99660.07
2019-03-05T14:01:09.261Z,99658.39
2019-03-05T14:03:53.469Z,99664.89
2019-03-05T14:07:03.566Z,99673.15
2019-03-05T14:09:31.509Z,99683.47
2019-03-05T14:12:01.438Z,99679.08
2019-03-05T14:14:31.698Z,99690.72
2019-03-05T14:17:18.821Z,99698.06
2019-03-05T14:19:48.665Z,99694.20
2019-03-05T14:22:18.508Z,99702.38
2019-03-05T14:24:48.933Z,99711.94
2019-03-05T14:27:19.038Z,99708.36
2019-03-05T14:29:49.089Z,99710.95
2019-03-05T14:32:19.058Z,99717.00
2019-03-05T14:35:07.594Z,99723.00
2019-03-05T14:37:37.799Z,99733.39
2019-03-05T14:40:23.687Z,99729.14
2019-03-05T14:42:42.184Z,99737.78
2019-03-05T14:45:17.758Z,99743.47
2019-03-05T14:47:47.742Z,99739.53
2019-03-05T14:50:17.357Z,99754.22
2019-03-05T14:52:47.318Z,99756.84
2019-03-05T14:55:17.416Z,99748.70
2019-03-05T14:57:47.834Z,99758.64
2019-03-05T15:00:19.538Z,99762.92
2019-03-05T15:02:49.418Z,99756.88
2019-03-05T15:05:19.361Z,99769.64
2019-03-05T15:07:49.502Z,99776.75
2019-03-05T15:10:19.504Z,99770.38
2019-03-05T15:12:49.236Z,99785.47
2019-03-05T15:15:21.825Z,99789.67
2019-03-05T15:17:51.989Z,99801.73
2019-03-05T15:20:22.043Z,99803.58
2019-03-05T15:22:52.185Z,99802.73
2019-03-05T15:25:21.855Z,99814.89
2019-03-05T15:27:51.808Z,99814.84
2019-03-05T15:30:22.741Z,99823.40
2019-03-05T15:32:52.609Z,99842.38
2019-03-05T15:35:22.563Z,99836.30
2019-03-05T15:37:52.852Z,99845.11
2019-03-05T15:40:22.981Z,99845.44
2019-03-05T15:42:53.029Z,99850.20
2019-03-05T15:45:23.063Z,99860.69
2019-03-05T15:47:52.794Z,99860.19
2019-03-05T15:50:22.656Z,99866.31
2019-03-05T15:52:52.545Z,99871.32
2019-03-05T15:55:22.616Z,99869.32
2019-03-05T15:57:52.496Z,99873.50
2019-03-05T16:00:30.440Z,99882.17
2019-03-05T16:03:00.929Z,99889.96
2019-03-05T16:05:31.058Z,99893.34
2019-03-05T16:08:01.386Z,99898.12
2019-03-05T16:10:31.571Z,99901.75
2019-03-05T16:13:01.424Z,99903.27
2019-03-05T16:15:31.309Z,99916.61
2019-03-05T16:18:05.136Z,99916.77
2019-03-05T16:20:33.167Z,99920.66
2019-03-05T16:23:02.804Z,99920.98
2019-03-05T16:25:32.506Z,99920.05
2019-03-05T16:28:06.300Z,99931.98
2019-03-05T16:30:53.634Z,99944.30
2019-03-05T16:33:36.750Z,99944.71
2019-03-05T16:36:30.580Z,99948.61
2019-03-05T16:39:27.247Z,99957.58
2019-03-05T16:42:35.492Z,99964.13
2019-03-05T16:45:27.921Z,99969.69
2019-03-05T16:48:20.049Z,99976.23
2019-03-05T16:51:05.136Z,99982.71
2019-03-05T16:54:05.957Z,99987.09
2019-03-05T16:56:42.893Z,99994.34
2019-03-05T16:59:31.387Z,100005.61
2019-03-05T17:02:19.276Z,100002.54
2019-03-05T17:05:06.485Z,100014.17
2019-03-05T17:08:03.334Z,100015.42
2019-03-05T17:10:50.684Z,100020.73
2019-03-05T17:13:20.713Z,100029.76
2019-03-05T17:15:50.648Z,100022.59
2019-03-05T17:18:20.387Z,100033.94
2019-03-05T17:20:50.498Z,100041.73
2019-03-05T17:23:20.501Z,100043.35
2019-03-05T17:25:50.937Z,100047.88
2019-03-05T17:28:20.888Z,100049.78
2019-03-05T17:30:50.901Z,100061.46
2019-03-05T17:33:20.796Z,100075.33
2019-03-05T17:35:50.728Z,100080.98
2019-03-05T17:38:20.603Z,100078.95
2019-03-05T17:40:50.382Z,100088.09
2019-03-05T17:43:20.515Z,100087.02
2019-03-05T17:45:50.163Z,100094.19
2019-03-05T17:48:20.056Z,100102.31
2019-03-05T17:50:50.237Z,100102.77
2019-03-05T17:53:20.073Z,100103.30
2019-03-05T17:55:50.471Z,100107.54
2019-03-05T17:58:20.464Z,100105.29
2019-03-05T18:00:50.359Z,100111.61
2019-03-05T18:03:20.310Z,100115.75
2019-03-05T18:05:50.234Z,100120.05
2019-03-05T18:08:20.158Z,100131.23
2019-03-05T18:10:50.076Z,100136.71
2019-03-05T18:13:20.109Z,100137.72
2019-03-05T18:15:49.807Z,100143.75
2019-03-05T18:18:19.812Z,100152.96
2019-03-05T18:20:50.155Z,100154.74
2019-03-05T18:23:19.876Z,100165.13
2019-03-05T18:25:49.818Z,100173.67
2019-03-05T18:28:19.905Z,100172.70
2019-03-05T18:30:49.703Z,100176.73
2019-03-05T18:33:20.152Z,100174.97
2019-03-05T18:35:50.608Z,100172.77
2019-03-05T18:38:21.651Z,100183.98
2019-03-05T18:40:51.903Z,100181.61
2019-03-05T18:43:21.792Z,100183.70
2019-03-05T18:45:51.713Z,100199.45
2019-03-05T18:48:21.939Z,100197.29
2019-03-05T18:50:52.953Z,100202.97
2019-03-05T18:53:22.758Z,100205.61
2019-03-05T18:55:52.745Z,100206.37
2019-03-05T18:58:22.736Z,100211.55
2019-03-05T19:00:52.405Z,100214.44
2019-03-05T19:03:22.702Z,100222.66
2019-03-05T19:05:52.461Z,100225.33
2019-03-05T19:08:22.428Z,100225.25
2019-03-05T19:10:52.596Z,100234.73
2019-03-05T19:13:22.611Z,100237.80
2019-03-05T19:15:55.155Z,100240.83
2019-03-05T19:18:24.886Z,100240.83
2019-03-05T19:20:54.891Z,100238.23
2019-03-05T19:23:24.729Z,100256.39
2019-03-05T19:25:54.928Z,100246.80
2019-03-05T19:28:25.051Z,100254.52
2019-03-05T19:30:54.940Z,100256.28
2019-03-05T19:33:24.731Z,100263.27
2019-03-05T19:35:54.657Z,100266.66
2019-03-05T19:38:25.351Z,100268.61
2019-03-05T19:40:55.797Z,100271.05
2019-03-05T19:43:25.729Z,100276.64
2019-03-05T19:45:55.572Z,100279.55
2019-03-05T19:48:25.801Z,100282.14
2019-03-05T19:50:55.814Z,100286.50
2019-03-05T19:53:25.422Z,100290.59
2019-03-05T19:55:55.791Z,100302.19
2019-03-05T19:58:25.676Z,100304.29
2019-03-05T20:01:13.963Z,100307.26
2019-03-05T20:03:43.778Z,100313.20
2019-03-05T20:06:15.067Z,100316.70
2019-03-05T20:08:45.334Z,100318.39
2019-03-05T20:11:15.406Z,100321.78
2019-03-05T20:13:45.783Z,100326.56
2019-03-05T20:16:17.520Z,100329.39
2019-03-05T20:18:47.740Z,100326.09
2019-03-05T20:21:17.467Z,100336.05
2019-03-05T20:23:47.223Z,100337.77
2019-03-05T20:26:17.114Z,100345.31
2019-03-05T20:28:47.900Z,100342.59
2019-03-05T20:31:18.024Z,100349.31
2019-03-05T20:33:47.982Z,100344.95
2019-03-05T20:36:17.473Z,100345.86
2019-03-05T20:38:47.401Z,100347.78
2019-03-05T20:41:16.929Z,100348.77
2019-03-05T20:43:46.818Z,100349.84
2019-03-05T20:46:28.529Z,100352.52
2019-03-05T20:48:58.558Z,100354.50
2019-03-05T20:51:28.639Z,100355.63
2019-03-05T20:53:58.647Z,100353.13
2019-03-05T20:56:28.393Z,100359.63
2019-03-05T20:59:00.150Z,100363.20
2019-03-05T21:01:31.405Z,100369.75
2019-03-05T21:04:01.705Z,100371.36
2019-03-05T21:06:31.573Z,100368.38
2019-03-05T21:09:01.399Z,100372.73
2019-03-05T21:11:31.154Z,100375.38
2019-03-05T21:14:01.180Z,100385.70
2019-03-05T21:16:31.654Z,100383.16
2019-03-05T21:19:01.696Z,100395.46
2019-03-05T21:21:32.096Z,100394.50
2019-03-05T21:24:02.351Z,100397.02
2019-03-05T21:26:32.435Z,100401.27
2019-03-05T21:29:03.359Z,100406.78
2019-03-05T21:31:33.141Z,100403.91
2019-03-05T21:34:03.008Z,100402.06
2019-03-05T21:36:32.641Z,100411.50
2019-03-05T21:39:02.724Z,100419.03
2019-03-05T21:41:33.565Z,100417.73
2019-03-05T21:44:03.532Z,100412.63
2019-03-05T21:46:33.073Z,100415.23
2019-03-05T21:49:02.611Z,100421.46
2019-03-05T21:51:32.616Z,100427.34
2019-03-05T21:54:02.801Z,100426.95
2019-03-05T21:56:32.667Z,100428.20
2019-03-05T21:59:03.209Z,100425.22
2019-03-05T22:01:33.450Z,100426.52
2019-03-05T22:04:03.404Z,100425.73
2019-03-05T22:06:33.216Z,100429.31
2019-03-05T22:09:02.735Z,100436.20
2019-03-05T22:11:32.751Z,100437.08
2019-03-05T22:14:02.495Z,100435.37
2019-03-05T22:16:32.488Z,100437.10
2019-03-05T22:19:05.923Z,100443.28
2019-03-05T22:21:36.292Z,100445.48
2019-03-05T22:24:06.697Z,100444.16
2019-03-05T22:26:36.795Z,100445.96
2019-03-05T22:29:06.988Z,100448.55
2019-03-05T22:31:36.763Z,100454.94
2019-03-05T22:34:06.451Z,100462.41
2019-03-05T22:36:35.944Z,100456.42
2019-03-05T22:39:07.199Z,100459.38
2019-03-05T22:41:38.347Z,100459.04
2019-03-05T22:44:08.159Z,100459.04
2019-03-05T22:46:38.286Z,100462.31
2019-03-05T22:49:08.601Z,100464.52
2019-03-05T22:51:38.670Z,100466.80
2019-03-05T22:54:08.449Z,100469.23
2019-03-05T22:56:38.323Z,100471.91
2019-03-05T22:59:08.065Z,100471.99
2019-03-05T23:01:40.370Z,100478.61
2019-03-05T23:04:11.280Z,100489.98
2019-03-05T23:06:42.913Z,100477.09
2019-03-05T23:09:19.831Z,100475.95
2019-03-05T23:11:49.915Z,100474.18
2019-03-05T23:14:19.785Z,100471.37
2019-03-05T23:16:49.561Z,100488.69
2019-03-05T23:19:19.871Z,100479.77
2019-03-05T23:21:49.591Z,100482.61
2019-03-05T23:24:19.642Z,100487.94
2019-03-05T23:26:49.686Z,100495.95
2019-03-05T23:29:21.102Z,100497.85
2019-03-05T23:31:51.220Z,100500.14
2019-03-05T23:34:21.023Z,100507.31
2019-03-05T23:36:50.710Z,100501.60
2019-03-05T23:39:20.746Z,100500.90
2019-03-05T23:41:50.877Z,100498.66
2019-03-05T23:44:20.495Z,100497.73
2019-03-05T23:46:50.566Z,100494.72
2019-03-05T23:49:20.382Z,100498.56
2019-03-05T23:51:50.117Z,100498.45
2019-03-05T23:54:19.911Z,100502.95
2019-03-05T23:56:50.090Z,100508.14
2019-03-05T23:59:19.891Z,100502.51
